Lipan, Texas
Current Conditions -  °F | °C
As of 7:35 AM on Wednesday 22 Oct 2014 (Local Time) from KGDJ Reporting Station
Clear Clear  
Wind Chill: 56°   Ceiling: Unl
Heat Index: 56°   Visibility: 7mi
Dew Point: 53°   Wind: 0mph
Humidity: 91%   Direction: NA
Pressure: 30.12"   Gusts: NA
Location:  32.52°N, 98.05°W
Report Text: KGDJ 221235Z AUTO 00000KT 7SM CLR 13/12 A3012 RMK AO2 T01310116
Loading
Personal Weather Stations






























Interactive Weather Map
Tropical Storm Tracking
New forecast layout! Learn more

10-Day Weather Forecast

Advertisements
Track Severe Weather on mobile